Time;durP1;ratioP1;P1;durP2;ratioP2;P2;SDS_P1;SDS_P2;PMS_P1;PMS_P2;Temp;Humidity;BMP_temperature;BMP_pressure;BME280_temperature;BME280_humidity;BME280_pressure;Samples;Min_cycle;Max_cycle;Signal;HPM_P1;HPM_P2
2020/12/21 00:00:43;;;;;;;61.10;30.90;;;;;;;2.74;93.84;101605.27;1755440;80;21292;-83
2020/12/21 00:03:16;;;;;;;61.57;29.40;;;;;;;2.83;93.86;101607.76;1746966;79;21233;-81
2020/12/21 00:05:46;;;;;;;53.10;27.17;;;;;;;2.89;93.63;101606.73;1782743;79;21145;-81
2020/12/21 00:08:16;;;;;;;52.20;28.95;;;;;;;2.92;93.51;101609.02;1781106;78;21069;-81
2020/12/21 00:10:46;;;;;;;55.92;30.12;;;;;;;2.96;93.27;101612.56;1757079;80;21510;-81
2020/12/21 00:13:15;;;;;;;44.90;25.03;;;;;;;3.00;93.22;101612.74;1781007;78;21105;-81
2020/12/21 00:15:44;;;;;;;43.70;25.70;;;;;;;3.03;93.05;101611.59;1766446;80;21513;-82
2020/12/21 00:18:13;;;;;;;53.53;28.70;;;;;;;3.08;93.05;101614.36;1783490;78;21185;-81
2020/12/21 00:20:44;;;;;;;93.33;47.33;;;;;;;3.13;92.95;101611.97;1775044;78;21127;-81
2020/12/21 00:23:12;;;;;;;51.60;28.63;;;;;;;3.18;92.70;101616.47;1771868;79;21169;-82
2020/12/21 00:25:41;;;;;;;46.63;23.57;;;;;;;3.17;92.09;101612.55;1771999;80;21128;-81
2020/12/21 00:28:09;;;;;;;61.47;28.90;;;;;;;3.11;91.77;101611.92;1777113;78;21186;-81
2020/12/21 00:30:39;;;;;;;51.73;28.43;;;;;;;3.04;92.00;101608.25;1789115;78;21479;-82
2020/12/21 00:33:07;;;;;;;56.33;28.77;;;;;;;3.05;92.42;101603.59;1731760;81;21186;-82
2020/12/21 00:35:37;;;;;;;50.67;28.55;;;;;;;3.04;92.14;101609.53;1767526;80;21250;-82
2020/12/21 00:38:10;;;;;;;54.13;29.43;;;;;;;3.04;92.75;101610.80;1747475;81;21091;-82
2020/12/21 00:40:44;;;;;;;50.73;26.57;;;;;;;3.07;92.96;101612.59;1752101;79;21114;-82
2020/12/21 00:43:13;;;;;;;46.10;26.43;;;;;;;3.10;93.20;101601.62;1764922;80;21102;-83
2020/12/21 00:45:43;;;;;;;60.33;30.70;;;;;;;3.12;92.99;101603.44;1759958;81;21141;-82
2020/12/21 00:48:11;;;;;;;62.77;31.30;;;;;;;3.06;92.52;101605.73;1752061;80;21109;-81
2020/12/21 00:50:41;;;;;;;71.00;32.03;;;;;;;2.95;92.89;101599.33;1734294;79;21129;-81
2020/12/21 00:53:10;;;;;;;59.60;29.30;;;;;;;2.90;93.35;101600.39;1772181;79;21086;-82
2020/12/21 00:55:39;;;;;;;55.73;28.67;;;;;;;2.86;93.40;101598.53;1751877;80;21113;-82
2020/12/21 00:58:07;;;;;;;53.80;27.60;;;;;;;2.81;93.53;101597.08;1729717;80;21185;-83
2020/12/21 01:00:35;;;;;;;51.57;26.73;;;;;;;2.75;93.80;101599.78;1777969;80;21090;-82
2020/12/21 01:03:03;;;;;;;52.67;28.83;;;;;;;2.73;94.10;101603.94;1766111;79;21239;-81
2020/12/21 01:05:34;;;;;;;45.70;26.07;;;;;;;2.70;94.43;101604.68;1739010;80;21130;-81
2020/12/21 01:08:03;;;;;;;47.30;25.82;;;;;;;2.72;94.62;101608.19;1766011;77;21216;-80
2020/12/21 01:10:32;;;;;;;52.47;27.60;;;;;;;2.77;94.94;101604.53;1771984;79;21114;-81
2020/12/21 01:13:00;;;;;;;38.43;23.57;;;;;;;2.82;95.00;101597.95;1729404;80;21097;-81
2020/12/21 01:15:29;;;;;;;42.67;23.80;;;;;;;2.85;94.71;101596.80;1765902;79;21290;-82
2020/12/21 01:17:57;;;;;;;47.63;25.13;;;;;;;2.84;94.52;101590.33;1756660;81;21158;-81
2020/12/21 01:20:26;;;;;;;43.10;25.77;;;;;;;2.83;94.55;101591.14;1781691;79;21130;-84
2020/12/21 01:22:57;;;;;;;43.70;24.97;;;;;;;2.83;94.56;101591.14;1792598;77;21164;-81
2020/12/21 01:25:26;;;;;;;43.50;23.13;;;;;;;2.86;94.64;101588.72;1745602;80;21142;-80
2020/12/21 01:27:54;;;;;;;41.63;22.80;;;;;;;2.91;94.69;101594.50;1773802;79;21109;-81
2020/12/21 01:30:22;;;;;;;42.67;23.77;;;;;;;2.96;94.76;101590.84;1749842;80;21248;-82
2020/12/21 01:32:52;;;;;;;41.10;23.80;;;;;;;2.99;94.69;101589.28;1753436;79;21122;-81
2020/12/21 01:35:21;;;;;;;45.47;23.43;;;;;;;3.03;94.51;101588.58;1796998;78;21086;-80
2020/12/21 01:37:50;;;;;;;43.27;23.40;;;;;;;3.05;94.06;101592.50;1762845;81;21118;-81
2020/12/21 01:40:18;;;;;;;38.67;22.70;;;;;;;3.02;93.98;101582.14;1765641;79;21138;-81
2020/12/21 01:42:47;;;;;;;43.43;23.47;;;;;;;2.96;93.69;101589.56;1783621;79;21070;-80
2020/12/21 01:45:16;;;;;;;43.37;21.17;;;;;;;2.86;93.90;101593.42;1765410;79;21478;-82
2020/12/21 01:48:03;;;;;;;44.60;24.27;;;;;;;2.79;94.12;101585.03;1754684;78;21078;-82
2020/12/21 01:50:32;;;;;;;43.93;22.93;;;;;;;2.72;94.25;101591.58;1754999;78;21146;-80
2020/12/21 01:53:01;;;;;;;53.27;26.43;;;;;;;2.68;94.49;101588.81;1772089;79;21114;-81
2020/12/21 01:55:30;;;;;;;56.30;27.82;;;;;;;2.63;94.79;101588.63;1756225;79;21222;-81
2020/12/21 01:58:00;;;;;;;55.37;29.63;;;;;;;2.59;94.88;101586.77;1787659;79;21307;-81
2020/12/21 02:00:29;;;;;;;49.97;25.67;;;;;;;2.57;95.23;101594.34;1781111;78;21138;-81
2020/12/21 02:02:58;;;;;;;54.87;28.80;;;;;;;2.58;95.47;101591.38;1774904;78;21110;-82
2020/12/21 02:05:30;;;;;;;50.97;28.63;;;;;;;2.57;95.71;101580.29;1773603;80;21079;-80
2020/12/21 02:07:59;;;;;;;51.03;28.17;;;;;;;2.58;95.95;101589.72;1775927;79;21155;-81
2020/12/21 02:10:31;;;;;;;54.63;27.67;;;;;;;2.60;95.80;101588.50;1773913;80;21089;-82
2020/12/21 02:13:00;;;;;;;61.80;30.02;;;;;;;2.61;96.15;101588.09;1795237;80;21115;-81
2020/12/21 02:15:29;;;;;;;60.47;31.87;;;;;;;2.64;96.28;101588.22;1759314;80;21574;-82
2020/12/21 02:17:59;;;;;;;61.75;29.75;;;;;;;2.67;96.46;101584.11;1763667;80;21125;-79
2020/12/21 02:20:28;;;;;;;54.03;29.30;;;;;;;2.72;96.45;101585.59;1753667;80;21122;-81
2020/12/21 02:22:57;;;;;;;;;;;;;;;2.71;96.51;101586.38;1780840;80;21150;-79
2020/12/21 02:25:25;;;;;;;57.53;25.90;;;;;;;2.76;96.80;101588.73;1794095;79;20123;-78
2020/12/21 02:27:53;;;;;;;59.07;23.50;;;;;;;2.71;96.27;101591.09;1756774;81;21151;-80
2020/12/21 02:30:21;;;;;;;59.37;25.30;;;;;;;2.66;96.32;101590.04;1770559;79;21205;-79
2020/12/21 02:32:49;;;;;;;56.43;26.80;;;;;;;2.63;96.58;101589.04;1784800;79;21265;-80
2020/12/21 02:35:17;;;;;;;60.30;25.63;;;;;;;2.64;96.45;101583.98;1739415;80;21169;-80
2020/12/21 02:37:46;;;;;;;49.53;24.53;;;;;;;2.66;96.36;101587.48;1783591;77;21221;-80
2020/12/21 02:40:14;;;;;;;52.17;27.27;;;;;;;2.64;96.45;101583.98;1746999;80;21122;-79
2020/12/21 02:42:43;;;;;;;43.50;21.47;;;;;;;2.66;96.56;101585.34;1766555;79;21201;-80
2020/12/21 02:45:11;;;;;;;42.57;21.07;;;;;;;2.64;96.59;101586.53;1744879;82;21243;-80
2020/12/21 02:47:39;;;;;;;46.97;20.77;;;;;;;2.65;96.82;101590.86;1765702;80;21126;-80
2020/12/21 02:50:08;;;;;;;51.50;23.80;;;;;;;2.69;96.88;101596.55;1742622;79;21157;-81
2020/12/21 02:52:37;;;;;;;52.03;21.90;;;;;;;2.71;96.85;101585.97;1783836;78;21149;-80
2020/12/21 02:55:08;;;;;;;43.08;21.50;;;;;;;2.75;96.87;101591.70;1797163;79;21134;-81
2020/12/21 02:57:38;;;;;;;52.73;21.93;;;;;;;2.79;96.75;101588.46;1797461;78;21106;-81
2020/12/21 03:00:09;;;;;;;55.83;24.12;;;;;;;2.80;96.63;101584.22;1800248;78;21343;-82
2020/12/21 03:02:41;;;;;;;52.77;21.60;;;;;;;2.85;96.39;101593.37;1777439;78;21180;-81
2020/12/21 03:05:13;;;;;;;46.27;20.43;;;;;;;2.84;95.94;101595.02;1781007;77;21256;-81
2020/12/21 03:07:43;;;;;;;41.70;18.73;;;;;;;2.80;95.88;101595.72;1813587;76;21146;-81
2020/12/21 03:10:11;;;;;;;45.83;18.77;;;;;;;2.75;95.29;101599.78;1810074;77;21560;-81
2020/12/21 03:12:40;;;;;;;45.83;19.93;;;;;;;2.61;95.31;101604.28;1814326;79;21131;-81
2020/12/21 03:15:08;;;;;;;41.83;16.90;;;;;;;2.51;95.79;101605.98;1780173;78;21125;-81
2020/12/21 03:17:36;;;;;;;42.23;17.83;;;;;;;2.46;96.20;101608.77;1803967;76;21152;-80
2020/12/21 03:20:05;;;;;;;54.63;20.00;;;;;;;2.39;96.34;101597.78;1805316;77;21172;-80
2020/12/21 03:22:34;;;;;;;51.50;20.77;;;;;;;2.33;97.06;101607.35;1819626;76;21118;-81
2020/12/21 03:25:02;;;;;;;40.93;19.70;;;;;;;2.36;97.38;101606.21;1811264;78;21157;-81
2020/12/21 03:27:30;;;;;;;40.20;17.37;;;;;;;2.41;97.46;101610.23;1779722;80;21240;-80
2020/12/21 03:29:58;;;;;;;45.17;19.40;;;;;;;2.40;97.50;101608.08;1795839;78;21118;-81
2020/12/21 03:32:26;;;;;;;29.00;15.27;;;;;;;2.33;97.26;101604.80;1834106;77;21192;-81
2020/12/21 03:34:55;;;;;;;36.90;17.20;;;;;;;2.32;97.69;101606.86;1819648;76;21161;-82
2020/12/21 03:37:24;;;;;;;32.43;18.00;;;;;;;2.31;97.86;101613.65;1803724;78;21102;-81
2020/12/21 03:39:51;;;;;;;34.20;17.57;;;;;;;2.30;97.62;101609.36;1770733;80;21109;-81
2020/12/21 03:42:19;;;;;;;32.27;16.63;;;;;;;2.30;97.73;101609.36;1763868;79;21126;-80
2020/12/21 03:44:47;;;;;;;32.63;15.57;;;;;;;2.32;98.12;101602.66;1783237;80;21074;-80
2020/12/21 03:47:16;;;;;;;22.83;13.43;;;;;;;2.38;98.31;101604.58;1771116;78;21359;-79
2020/12/21 03:49:46;;;;;;;;;;;;;;;2.44;97.98;101606.53;1790057;77;21086;-80
2020/12/21 03:52:15;;;;;;;19.87;11.93;;;;;;;2.41;97.85;101608.55;1805213;77;20129;-81
2020/12/21 03:54:44;;;;;;;23.00;13.47;;;;;;;2.45;97.91;101605.71;1781965;79;21102;-79
2020/12/21 03:57:11;;;;;;;23.73;14.57;;;;;;;2.48;97.90;101609.68;1787481;79;21222;-80
2020/12/21 03:59:39;;;;;;;21.20;13.77;;;;;;;2.53;97.93;101610.77;1733628;80;21130;-81
2020/12/21 04:02:09;;;;;;;27.35;14.83;;;;;;;2.56;97.65;101606.66;1684976;83;21102;-81
2020/12/21 04:04:37;;;;;;;29.27;15.13;;;;;;;2.62;97.83;101610.30;1728610;81;21106;-81
2020/12/21 04:07:06;;;;;;;34.07;16.17;;;;;;;2.70;97.73;101608.52;1727084;82;21268;-81
2020/12/21 04:09:34;;;;;;;34.27;16.10;;;;;;;2.76;97.35;101607.50;1776193;80;21090;-81
2020/12/21 04:12:02;;;;;;;42.10;17.13;;;;;;;2.81;97.11;101608.95;1801789;78;21267;-81
2020/12/21 04:14:31;;;;;;;45.73;19.10;;;;;;;2.85;96.89;101609.58;1784370;79;21122;-82
2020/12/21 04:16:59;;;;;;;34.90;17.87;;;;;;;2.89;96.44;101611.85;1776360;78;21147;-81
2020/12/21 04:19:28;;;;;;;19.67;12.90;;;;;;;2.90;96.35;101612.31;1781942;78;21090;-81
2020/12/21 04:21:56;;;;;;;21.87;11.80;;;;;;;2.93;96.38;101611.16;1757981;80;21137;-81
2020/12/21 04:24:27;;;;;;;19.95;11.75;;;;;;;2.94;95.77;101605.23;1778797;79;21303;-82
2020/12/21 04:26:56;;;;;;;24.63;12.93;;;;;;;2.90;95.51;101599.53;1753125;80;21118;-81
2020/12/21 04:29:30;;;;;;;28.83;15.03;;;;;;;2.86;95.24;101595.98;1782144;79;21099;-80
2020/12/21 04:31:59;;;;;;;26.43;14.50;;;;;;;2.86;95.24;101599.81;1779779;80;21170;-80
2020/12/21 04:34:28;;;;;;;27.77;13.87;;;;;;;2.85;95.26;101604.46;1795411;79;21653;-82
2020/12/21 04:36:57;;;;;;;21.30;13.07;;;;;;;2.83;94.95;101600.95;1766097;79;21150;-80
2020/12/21 04:39:25;;;;;;;23.93;14.90;;;;;;;2.79;94.88;101604.20;1793133;79;21079;-81
2020/12/21 04:41:56;;;;;;;23.73;14.60;;;;;;;2.75;94.78;101603.20;1757319;80;21241;-80
2020/12/21 04:44:27;;;;;;;30.23;15.67;;;;;;;2.65;94.58;101593.41;1786443;78;21222;-81
2020/12/21 04:46:55;;;;;;;25.00;13.60;;;;;;;2.51;95.05;101591.94;1774704;80;21115;-81
2020/12/21 04:49:25;;;;;;;23.63;13.53;;;;;;;2.44;95.62;101590.80;1804530;76;21122;-80
2020/12/21 04:51:54;;;;;;;17.17;10.95;;;;;;;2.37;95.96;101584.09;1770896;78;21154;-81
2020/12/21 04:54:21;;;;;;;17.37;11.87;;;;;;;2.38;96.43;101588.38;1758858;79;21276;-81
2020/12/21 04:56:49;;;;;;;18.30;11.77;;;;;;;2.37;96.61;101595.59;1803653;78;21103;-80
2020/12/21 04:59:19;;;;;;;15.07;9.50;;;;;;;2.30;96.48;101597.88;1746766;80;21153;-80
2020/12/21 05:01:47;;;;;;;19.90;12.73;;;;;;;2.25;97.02;101599.34;1716789;81;21330;-82
2020/12/21 05:04:16;;;;;;;18.30;11.53;;;;;;;2.16;96.98;101593.85;1720205;81;21275;-80
2020/12/21 05:07:03;;;;;;;16.97;10.60;;;;;;;2.10;97.60;101605.93;1765319;80;21102;-81
2020/12/21 05:09:32;;;;;;;17.20;10.53;;;;;;;2.08;98.15;101602.42;1763038;80;21176;-82
2020/12/21 05:12:07;;;;;;;20.10;11.83;;;;;;;2.10;98.45;101605.06;1764100;78;21093;-82
2020/12/21 05:14:37;;;;;;;18.45;11.78;;;;;;;2.10;98.49;101599.95;1752232;80;21071;-81
2020/12/21 05:17:35;;;;;;;17.40;11.38;;;;;;;2.09;98.87;101599.47;1736127;79;21173;-81
2020/12/21 05:20:04;;;;;;;17.27;11.13;;;;;;;2.10;99.26;101599.95;1773615;80;21181;-81
2020/12/21 05:22:34;;;;;;;20.90;12.80;;;;;;;2.16;99.52;101598.95;1736153;82;21146;-83
2020/12/21 05:25:12;;;;;;;19.57;11.93;;;;;;;2.21;99.44;101598.73;1710483;81;21111;-82
2020/12/21 05:28:22;;;;;;;17.73;11.70;;;;;;;2.28;99.57;101590.94;1725412;81;21327;-83
2020/12/21 05:31:20;;;;;;;14.07;8.93;;;;;;;2.38;99.67;101584.55;1748138;80;21500;-81
2020/12/21 05:33:52;;;;;;;15.37;10.27;;;;;;;2.41;98.63;101589.38;1663548;83;21130;-81
2020/12/21 05:36:35;;;;;;;17.90;11.23;;;;;;;2.30;98.55;101589.34;1754474;81;21114;-83
2020/12/21 05:39:07;;;;;;;19.53;11.47;;;;;;;2.22;98.72;101600.48;1748689;81;21107;-82
2020/12/21 05:41:38;;;;;;;18.67;11.00;;;;;;;2.19;99.12;101591.44;1727267;81;21123;-81
2020/12/21 05:44:17;;;;;;;19.03;11.27;;;;;;;2.21;99.58;101594.04;1746232;81;21462;-81
2020/12/21 05:46:46;;;;;;;16.40;11.23;;;;;;;2.23;99.44;101597.55;1749127;81;21115;-82
2020/12/21 05:49:16;;;;;;;18.50;12.20;;;;;;;2.18;99.32;101599.01;1772616;80;21119;-81
2020/12/21 05:51:49;;;;;;;18.13;10.30;;;;;;;2.17;99.51;101607.08;1757723;77;21191;-83
2020/12/21 05:55:11;;;;;;;11.40;7.27;;;;;;;2.10;99.13;101603.78;1755593;79;21121;-78
2020/12/21 05:57:40;;;;;;;12.43;7.13;;;;;;;2.02;99.77;101614.91;1740048;81;21220;-79
2020/12/21 06:00:09;;;;;;;13.57;7.77;;;;;;;2.01;100.00;101619.55;1760798;80;21145;-78
2020/12/21 06:02:37;;;;;;;12.33;7.50;;;;;;;1.99;100.00;101620.28;1802070;79;21153;-81
2020/12/21 06:05:12;;;;;;;12.67;7.63;;;;;;;2.00;100.00;101626.75;1802050;79;21070;-78
2020/12/21 06:07:47;;;;;;;11.37;7.63;;;;;;;2.00;100.00;101623.33;1785496;79;21163;-77
2020/12/21 06:10:15;;;;;;;11.10;7.83;;;;;;;2.06;100.00;101629.95;1794533;80;21086;-77
2020/12/21 06:12:46;;;;;;;12.80;8.47;;;;;;;2.11;100.00;101631.05;1773130;80;21101;-76
2020/12/21 06:15:22;;;;;;;14.58;8.70;;;;;;;2.18;100.00;101632.20;1794655;80;21077;-76
2020/12/21 06:17:50;;;;;;;15.43;7.60;;;;;;;2.22;100.00;101633.67;1770660;80;21107;-79
2020/12/21 06:20:21;;;;;;;9.95;6.08;;;;;;;2.25;100.00;101640.59;1823605;79;21133;-79
2020/12/21 06:22:51;;;;;;;10.77;6.87;;;;;;;2.25;100.00;101638.91;1809920;78;21058;-79
2020/12/21 06:25:23;;;;;;;11.00;7.37;;;;;;;2.21;100.00;101640.00;1795076;79;21162;-79
2020/12/21 06:27:51;;;;;;;11.40;7.00;;;;;;;2.17;99.64;101638.98;1782197;80;21084;-79
2020/12/21 06:30:30;;;;;;;10.93;7.20;;;;;;;2.08;99.68;101636.88;1728345;81;21121;-80
2020/12/21 06:33:03;;;;;;;12.97;7.50;;;;;;;2.04;99.80;101637.97;1797879;80;21228;-79
2020/12/21 06:35:43;;;;;;;10.10;6.80;;;;;;;2.05;100.00;101643.13;1793056;79;21089;-80
2020/12/21 06:38:13;;;;;;;8.10;6.33;;;;;;;2.08;100.00;101639.84;1762478;78;21078;-81
2020/12/21 06:40:44;;;;;;;10.40;6.30;;;;;;;2.06;100.00;101640.16;1797269;79;21118;-80
2020/12/21 06:43:14;;;;;;;9.20;6.40;;;;;;;2.09;100.00;101637.75;1730869;81;21129;-80
2020/12/21 06:45:44;;;;;;;8.60;6.30;;;;;;;2.09;99.88;101642.86;1771068;80;21104;-80
2020/12/21 06:48:24;;;;;;;9.85;6.40;;;;;;;2.06;99.96;101642.72;1769372;80;21250;-77
2020/12/21 06:50:53;;;;;;;8.90;6.50;;;;;;;2.12;100.00;101640.45;1795362;79;21095;-80
2020/12/21 06:53:21;;;;;;;9.30;6.23;;;;;;;2.16;99.73;101646.19;1797218;79;21036;-79
2020/12/21 06:55:51;;;;;;;8.33;5.80;;;;;;;2.13;100.00;101641.34;1786216;78;21266;-80
2020/12/21 06:58:19;;;;;;;8.70;5.90;;;;;;;2.18;100.00;101642.41;1756101;80;21025;-79
2020/12/21 07:00:52;;;;;;;9.73;7.23;;;;;;;2.22;100.00;101644.28;1784772;80;21029;-79
2020/12/21 07:03:20;;;;;;;13.57;7.57;;;;;;;2.26;99.75;101647.06;1783936;78;20998;-81
2020/12/21 07:05:58;;;;;;;11.90;7.30;;;;;;;2.26;99.78;101648.75;1750688;79;21010;-80
2020/12/21 07:08:26;;;;;;;14.60;8.57;;;;;;;2.31;100.00;101643.02;1784755;79;21387;-79
2020/12/21 07:10:57;;;;;;;12.20;8.03;;;;;;;2.41;100.00;101656.20;1798080;80;20978;-80
2020/12/21 07:13:25;;;;;;;12.40;7.50;;;;;;;2.46;99.96;101643.24;1768719;79;21096;-80
2020/12/21 07:15:56;;;;;;;10.50;6.90;;;;;;;2.53;99.95;101645.25;1798258;78;21039;-80
2020/12/21 07:18:24;;;;;;;11.27;7.83;;;;;;;2.60;99.80;101640.88;1799769;79;20986;-79
2020/12/21 07:20:54;;;;;;;13.87;8.23;;;;;;;2.64;99.01;101640.19;1795141;79;20987;-79
2020/12/21 07:23:44;;;;;;;11.10;7.83;;;;;;;2.65;98.62;101642.33;1796769;78;21113;-79
2020/12/21 07:26:14;;;;;;;14.43;7.87;;;;;;;2.69;98.77;101645.52;1670954;84;21019;-78
2020/12/21 07:28:51;;;;;;;12.00;7.00;;;;;;;2.70;97.93;101639.59;1649144;84;21114;-79
2020/12/21 07:31:20;;;;;;;10.80;7.67;;;;;;;2.66;97.06;101647.94;1663112;86;21066;-78
2020/12/21 07:34:00;;;;;;;8.60;5.87;;;;;;;2.63;97.62;101641.00;1683800;84;21024;-80
2020/12/21 07:36:37;;;;;;;11.60;8.10;;;;;;;2.69;97.60;101642.96;1677640;83;21014;-76
2020/12/21 07:39:32;;;;;;;9.80;6.53;;;;;;;2.58;95.62;101635.71;1672356;84;21691;-79
2020/12/21 07:44:58;;;;;;;10.73;7.03;;;;;;;2.30;96.81;101637.45;1653973;84;21061;-80
2020/12/21 07:47:33;;;;;;;9.90;6.07;;;;;;;2.19;96.87;101637.39;1666490;84;21061;-80
2020/12/21 07:50:09;;;;;;;11.27;7.77;;;;;;;2.16;97.71;101641.45;1676776;83;21058;-78
2020/12/21 07:52:41;;;;;;;12.47;8.80;;;;;;;2.05;97.41;101639.70;1694467;82;21200;-82
2020/12/21 07:55:35;;;;;;;13.23;8.53;;;;;;;1.93;98.41;101637.48;1679313;83;21115;-78
2020/12/21 07:58:15;;;;;;;15.17;9.90;;;;;;;1.72;100.00;101641.59;1635605;85;21132;-79
2020/12/21 08:00:54;;;;;;;15.70;7.72;;;;;;;1.53;100.00;101643.66;1665895;83;21080;-79
2020/12/21 08:03:24;;;;;;;15.73;9.53;;;;;;;1.41;100.00;101642.70;1711596;83;21046;-79
2020/12/21 08:06:11;;;;;;;10.88;7.00;;;;;;;1.31;100.00;101637.56;1694312;83;21058;-78
2020/12/21 08:08:41;;;;;;;14.63;9.57;;;;;;;1.29;100.00;101637.00;1699100;83;20971;-75
2020/12/21 08:11:18;;;;;;;16.83;10.43;;;;;;;1.26;100.00;101641.55;1707534;82;21035;-78
2020/12/21 08:49:09;;;;;;;11.97;7.40;;;;;;;1.64;100.00;101645.06;1816866;77;21057;-81
2020/12/21 09:01:44;;;;;;;8.97;6.60;;;;;;;1.39;100.00;101650.66;1766665;77;21134;-81
2020/12/21 09:04:16;;;;;;;9.50;6.73;;;;;;;1.29;100.00;101636.59;1773376;79;21043;-79
2020/12/21 09:06:44;;;;;;;11.47;7.67;;;;;;;1.23;100.00;101640.52;1788051;79;21010;-79
2020/12/21 09:09:13;;;;;;;8.63;5.57;;;;;;;1.20;100.00;101641.24;1799235;79;21007;-78
2020/12/21 09:11:43;;;;;;;9.63;7.15;;;;;;;1.20;100.00;101639.97;1790359;79;20959;-80
2020/12/21 09:14:13;;;;;;;10.55;7.20;;;;;;;1.17;100.00;101635.59;1756510;80;20995;-79
2020/12/21 09:16:44;;;;;;;8.83;5.50;;;;;;;1.19;100.00;101632.27;1786504;79;20946;-82
2020/12/21 09:19:15;;;;;;;9.63;6.42;;;;;;;1.16;100.00;101633.84;1745399;81;21054;-82
2020/12/21 09:21:46;;;;;;;9.20;5.93;;;;;;;1.12;100.00;101632.36;1774693;78;21018;-82
2020/12/21 09:24:16;;;;;;;8.00;5.95;;;;;;;1.04;100.00;101624.32;1748911;80;20995;-81
2020/12/21 09:26:47;;;;;;;9.68;6.33;;;;;;;1.01;100.00;101625.84;1746870;82;21043;-81
2020/12/21 09:29:17;;;;;;;9.60;6.73;;;;;;;1.00;100.00;101623.70;1805745;79;21006;-80
2020/12/21 09:31:46;;;;;;;9.17;6.43;;;;;;;1.04;100.00;101626.87;1781006;79;21161;-81
2020/12/21 09:34:19;;;;;;;8.73;6.00;;;;;;;1.09;100.00;101622.89;1770519;79;21011;-82
2020/12/21 09:36:51;;;;;;;8.00;5.37;;;;;;;1.10;100.00;101618.25;1793417;78;20966;-81
2020/12/21 09:39:21;;;;;;;9.57;6.40;;;;;;;1.04;100.00;101622.17;1748475;82;21132;-81
2020/12/21 09:41:54;;;;;;;11.08;6.50;;;;;;;1.02;100.00;101618.70;1794712;79;21104;-80
2020/12/21 09:44:23;;;;;;;10.00;6.60;;;;;;;0.96;100.00;101614.58;1766623;79;21019;-79
2020/12/21 09:46:53;;;;;;;10.63;6.80;;;;;;;0.92;100.00;101613.55;1767383;81;21109;-81
2020/12/21 09:49:23;;;;;;;8.90;6.42;;;;;;;0.97;100.00;101607.39;1778805;79;20997;-80
2020/12/21 09:51:52;;;;;;;9.57;5.33;;;;;;;1.01;100.00;101608.02;1779564;79;21050;-80
2020/12/21 09:54:24;;;;;;;8.93;5.83;;;;;;;0.96;100.00;101605.66;1781565;79;20969;-80
2020/12/21 09:56:56;;;;;;;10.90;7.00;;;;;;;0.97;100.00;101607.39;1754666;81;21070;-81
2020/12/21 09:59:26;;;;;;;9.33;6.22;;;;;;;0.97;100.00;101605.72;1818578;78;21033;-79
2020/12/21 10:01:58;;;;;;;9.20;5.50;;;;;;;1.01;100.00;101606.33;1742885;81;21074;-78
2020/12/21 10:04:27;;;;;;;10.27;6.77;;;;;;;1.06;100.00;101609.13;1792658;79;21007;-79
2020/12/21 10:06:55;;;;;;;8.93;5.97;;;;;;;1.08;100.00;101607.50;1792251;78;20998;-80
2020/12/21 10:09:28;;;;;;;10.78;7.25;;;;;;;1.14;100.00;101606.53;1789755;79;21006;-79
2020/12/21 10:11:57;;;;;;;10.95;6.47;;;;;;;1.11;100.00;101602.19;1733529;82;21066;-79
2020/12/21 10:14:25;;;;;;;9.07;5.90;;;;;;;1.07;100.00;101608.31;1729605;81;21173;-79
2020/12/21 10:16:54;;;;;;;11.70;7.77;;;;;;;1.06;100.00;101602.75;1735287;81;21050;-79
2020/12/21 10:19:22;;;;;;;11.47;6.57;;;;;;;1.05;100.00;101606.98;1757449;80;21012;-79
2020/12/21 10:21:51;;;;;;;10.20;7.30;;;;;;;1.01;100.00;101597.82;1776055;80;21027;-78
2020/12/21 10:24:20;;;;;;;14.27;7.20;;;;;;;0.95;100.00;101599.69;1743459;80;21035;-80
2020/12/21 10:26:49;;;;;;;11.57;7.47;;;;;;;0.93;100.00;101605.09;1746182;81;21019;-80
2020/12/21 10:29:24;;;;;;;10.43;6.07;;;;;;;0.89;100.00;101592.61;1727340;83;21026;-80
2020/12/21 10:31:52;;;;;;;13.73;7.40;;;;;;;0.83;100.00;101599.95;1771688;79;21015;-79
2020/12/21 10:34:21;;;;;;;17.20;8.40;;;;;;;0.83;100.00;101596.53;1769704;79;20998;-78
2020/12/21 10:36:50;;;;;;;11.70;7.53;;;;;;;0.81;100.00;101591.75;1769396;79;21023;-78
2020/12/21 10:39:19;;;;;;;11.97;7.83;;;;;;;0.79;100.00;101593.36;1769058;79;20931;-79
2020/12/21 10:41:48;;;;;;;11.83;7.40;;;;;;;0.84;100.00;101594.04;1785307;79;20987;-80
2020/12/21 10:44:16;;;;;;;13.73;9.23;;;;;;;0.97;100.00;101597.20;1781592;79;21042;-79
2020/12/21 10:46:45;;;;;;;12.27;8.37;;;;;;;1.06;100.00;101591.28;1741022;79;21017;-80
2020/12/21 10:49:13;;;;;;;11.87;8.33;;;;;;;1.15;100.00;101596.83;1785981;79;21007;-77
2020/12/21 10:51:42;;;;;;;11.13;7.00;;;;;;;1.23;100.00;101589.55;1771410;80;21160;-80
2020/12/21 10:54:16;;;;;;;11.63;7.43;;;;;;;1.32;100.00;101591.26;1764896;79;20987;-81
2020/12/21 10:56:45;;;;;;;12.47;9.03;;;;;;;1.28;100.00;101591.92;1757390;79;21030;-80
2020/12/21 10:59:14;;;;;;;14.57;9.23;;;;;;;1.19;100.00;101595.30;1774892;79;21045;-81
2020/12/21 11:01:47;;;;;;;14.37;8.90;;;;;;;1.18;100.00;101588.06;1775783;79;21082;-81
2020/12/21 11:04:16;;;;;;;15.23;9.60;;;;;;;1.18;100.00;101595.70;1781143;79;20991;-80
2020/12/21 11:06:47;;;;;;;16.30;9.83;;;;;;;1.15;100.00;101592.60;1784126;78;21003;-80
2020/12/21 11:09:16;;;;;;;17.03;9.10;;;;;;;1.14;100.00;101595.06;1772252;79;20999;-80
2020/12/21 11:11:47;;;;;;;12.07;7.90;;;;;;;1.19;100.00;101592.75;1724670;81;21433;-78
2020/12/21 11:14:15;;;;;;;18.50;10.50;;;;;;;1.20;100.00;101597.04;1741853;79;21022;-80
2020/12/21 11:16:52;;;;;;;16.40;10.40;;;;;;;1.20;100.00;101590.67;1780244;79;21293;-83
2020/12/21 12:21:51;;;;;;;27.13;15.10;;;;;;;0.75;100.00;101596.13;1725543;77;21287;31
2020/12/21 12:24:44;;;;;;;27.67;16.70;;;;;;;0.82;100.00;101593.52;1727856;82;21088;-81
2020/12/21 12:27:40;;;;;;;31.50;17.90;;;;;;;0.90;100.00;101589.66;1720266;82;21045;-83
2020/12/21 12:30:33;;;;;;;29.77;17.60;;;;;;;0.90;100.00;101589.66;1736289;82;21595;-83
2020/12/21 12:33:45;;;;;;;25.77;14.83;;;;;;;1.01;100.00;101589.77;1741643;79;21024;-83
2020/12/21 12:39:30;;;;;;;28.20;16.87;;;;;;;1.08;99.22;101588.39;1718463;78;21190;-81
2020/12/21 12:42:14;;;;;;;25.60;15.67;;;;;;;1.02;98.65;101589.40;1693920;80;21066;-82
2020/12/21 12:44:53;;;;;;;28.00;16.10;;;;;;;0.96;98.27;101589.09;1737266;81;21057;-84
2020/12/21 12:47:59;;;;;;;27.13;16.23;;;;;;;0.88;98.39;101584.88;1757544;79;21229;-84
2020/12/21 12:50:52;;;;;;;26.83;16.23;;;;;;;0.77;99.21;101588.17;1771157;79;20982;-84
2020/12/21 12:54:18;;;;;;;28.87;17.13;;;;;;;0.74;99.60;101593.11;1770900;80;21001;-83
2020/12/21 13:30:25;;;;;;;;;;;;;;;;;;;;;
2020/12/21 13:33:30;;;;;;;21.17;12.80;;;;;;;0.28;99.66;101615.38;1645528;78;22769;-83
2020/12/21 13:36:37;;;;;;;22.80;11.47;;;;;;;0.22;100.00;101614.24;1758086;80;21149;-82
2020/12/21 13:39:16;;;;;;;25.43;15.20;;;;;;;0.10;99.91;101611.08;1762035;80;21017;-82
2020/12/21 13:57:59;;;;;;;23.23;12.23;;;;;;;-0.02;100.00;101610.42;1748344;77;21150;-81
2020/12/21 14:01:08;;;;;;;21.33;11.60;;;;;;;-0.06;100.00;101605.98;1741664;78;21369;-82
2020/12/21 14:03:39;;;;;;;20.03;11.70;;;;;;;-0.07;100.00;101611.84;1763754;78;21009;-80
2020/12/21 14:06:12;;;;;;;23.77;12.90;;;;;;;-0.06;100.00;101608.12;1764639;80;21025;-82
2020/12/21 14:08:55;;;;;;;21.73;13.07;;;;;;;-0.03;100.00;101607.02;1732316;81;21066;-81
2020/12/21 14:11:28;;;;;;;21.83;12.23;;;;;;;0.01;100.00;101599.55;1772532;80;20972;-82
2020/12/21 14:14:02;;;;;;;18.17;10.60;;;;;;;-0.04;100.00;101603.09;1756192;80;21065;-82
2020/12/21 14:16:37;;;;;;;18.60;12.17;;;;;;;-0.07;100.00;101601.66;1703749;83;21014;-82
2020/12/21 14:19:08;;;;;;;20.30;11.93;;;;;;;-0.05;100.00;101606.05;1778326;79;20987;-80
2020/12/21 14:21:38;;;;;;;14.15;8.73;;;;;;;-0.01;99.98;101609.22;1759869;80;20989;-82
2020/12/21 14:24:09;;;;;;;21.70;12.88;;;;;;;-0.01;99.05;101604.53;1745020;80;20991;-81
2020/12/21 14:26:42;;;;;;;19.93;11.57;;;;;;;-0.05;98.76;101602.63;1704587;81;21114;-80